createdAt,value
2019-02-21T00:02:05.982Z,24.95
2019-02-21T00:04:34.640Z,23.47
2019-02-21T00:07:02.784Z,24.10
2019-02-21T00:09:30.960Z,23.90
2019-02-21T00:11:59.173Z,23.92
2019-02-21T00:14:27.306Z,30.47
2019-02-21T00:16:55.467Z,30.25
2019-02-21T00:19:24.674Z,31.87
2019-02-21T00:21:52.851Z,35.48
2019-02-21T00:24:21.027Z,30.17
2019-02-21T00:26:49.594Z,33.05
2019-02-21T00:29:17.776Z,24.87
2019-02-21T00:31:47.250Z,27.62
2019-02-21T00:34:15.455Z,28.67
2019-02-21T00:36:44.005Z,25.57
2019-02-21T00:39:12.221Z,24.18
2019-02-21T00:41:41.782Z,27.90
2019-02-21T00:44:10.012Z,27.32
2019-02-21T00:46:38.174Z,27.10
2019-02-21T00:49:06.342Z,28.92
2019-02-21T00:51:34.500Z,29.20
2019-02-21T00:54:02.970Z,28.65
2019-02-21T00:56:31.191Z,28.15
2019-02-21T00:58:59.340Z,29.25
2019-02-21T01:01:27.808Z,24.75
2019-02-21T01:03:56.012Z,34.00
2019-02-21T01:06:24.173Z,35.78
2019-02-21T01:09:11.751Z,35.90
2019-02-21T01:11:39.867Z,36.33
2019-02-21T01:14:08.041Z,34.80
2019-02-21T01:16:36.534Z,32.73
2019-02-21T01:19:04.712Z,31.82
2019-02-21T01:21:32.869Z,33.23
2019-02-21T01:24:04.713Z,34.27
2019-02-21T01:26:30.244Z,34.45
2019-02-21T01:28:58.657Z,52.17
2019-02-21T01:31:26.802Z,27.25
2019-02-21T01:33:54.970Z,33.03
2019-02-21T01:36:23.155Z,30.70
2019-02-21T01:38:51.322Z,35.88
2019-02-21T01:41:19.531Z,37.23
2019-02-21T01:43:47.658Z,34.27
2019-02-21T01:46:15.839Z,30.92
2019-02-21T01:48:45.035Z,27.73
2019-02-21T01:51:14.225Z,34.67
2019-02-21T01:53:42.432Z,32.42
2019-02-21T01:56:10.559Z,27.13
2019-02-21T01:58:38.756Z,25.85
2019-02-21T02:01:08.871Z,26.97
2019-02-21T02:03:35.110Z,23.50
2019-02-21T02:06:03.270Z,27.40
2019-02-21T02:08:31.467Z,28.38
2019-02-21T02:10:59.612Z,27.17
2019-02-21T02:13:29.197Z,29.40
2019-02-21T02:15:57.414Z,27.73
2019-02-21T02:18:25.565Z,26.00
2019-02-21T02:20:54.034Z,26.97
2019-02-21T02:23:22.215Z,31.48
2019-02-21T02:25:50.435Z,33.05
2019-02-21T02:28:18.566Z,32.88
2019-02-21T02:30:47.152Z,28.57
2019-02-21T02:33:15.329Z,25.48
2019-02-21T02:35:43.508Z,25.77
2019-02-21T02:38:11.677Z,32.42
2019-02-21T02:40:39.859Z,32.48
2019-02-21T02:43:08.537Z,27.62
2019-02-21T02:45:36.876Z,33.20
2019-02-21T02:48:04.887Z,33.10
2019-02-21T02:50:33.964Z,29.12
2019-02-21T02:53:02.160Z,33.65
2019-02-21T02:55:30.369Z,33.33
2019-02-21T02:57:59.523Z,35.38
2019-02-21T03:00:27.724Z,37.53
2019-02-21T03:02:55.882Z,33.70
2019-02-21T03:05:24.361Z,32.33
2019-02-21T03:07:52.823Z,28.30
2019-02-21T03:10:20.986Z,27.65
2019-02-21T03:12:49.571Z,30.25
2019-02-21T03:15:18.781Z,34.78
2019-02-21T03:17:46.973Z,30.70
2019-02-21T03:20:15.126Z,52.13
2019-02-21T03:22:43.300Z,35.70
2019-02-21T03:25:11.855Z,35.20
2019-02-21T03:27:40.062Z,31.75
2019-02-21T03:30:27.909Z,25.75
2019-02-21T03:32:56.068Z,31.82
2019-02-21T03:35:25.566Z,31.75
2019-02-21T03:37:53.741Z,31.80
2019-02-21T03:40:21.928Z,29.77
2019-02-21T03:42:50.107Z,32.10
2019-02-21T03:45:18.639Z,32.73
2019-02-21T03:47:46.842Z,28.47
2019-02-21T03:50:15.299Z,31.00
2019-02-21T03:52:43.491Z,34.88
2019-02-21T03:55:12.696Z,29.20
2019-02-21T03:57:42.921Z,30.02
2019-02-21T04:00:11.097Z,24.67
2019-02-21T04:02:40.236Z,30.62
2019-02-21T04:05:08.369Z,34.55
2019-02-21T04:07:36.832Z,32.70
2019-02-21T04:10:05.175Z,34.03
2019-02-21T04:12:33.892Z,30.53
2019-02-21T04:15:02.091Z,31.30
2019-02-21T04:17:42.423Z,26.55
2019-02-21T04:20:10.938Z,28.10
2019-02-21T04:22:39.092Z,31.70
2019-02-21T04:25:07.275Z,35.10
2019-02-21T04:27:35.445Z,27.52
2019-02-21T04:30:03.613Z,30.90
2019-02-21T04:32:32.091Z,34.53
2019-02-21T04:35:00.593Z,33.55
2019-02-21T04:37:29.014Z,31.80
2019-02-21T04:39:57.225Z,34.10
2019-02-21T04:42:38.345Z,35.25
2019-02-21T04:45:06.541Z,38.15
2019-02-21T04:47:35.007Z,30.12
2019-02-21T04:50:03.258Z,35.90
2019-02-21T04:52:31.412Z,32.25
2019-02-21T04:54:59.600Z,30.48
2019-02-21T04:57:27.813Z,33.67
2019-02-21T04:59:55.965Z,29.77
2019-02-21T05:02:29.095Z,24.65
2019-02-21T05:04:52.332Z,33.30
2019-02-21T05:07:20.818Z,29.60
2019-02-21T05:09:58.039Z,33.40
2019-02-21T05:12:18.120Z,32.35
2019-02-21T05:14:47.332Z,29.72
2019-02-21T05:17:15.498Z,28.00
2019-02-21T05:19:44.686Z,29.10
2019-02-21T05:22:17.104Z,35.88
2019-02-21T05:24:45.515Z,30.68
2019-02-21T05:27:19.923Z,28.52
2019-02-21T05:29:49.362Z,27.85
2019-02-21T05:32:42.547Z,35.70
2019-02-21T05:35:25.682Z,35.83
2019-02-21T05:38:03.894Z,34.38
2019-02-21T05:41:00.306Z,30.88
2019-02-21T05:43:38.228Z,30.37
2019-02-21T05:46:24.401Z,34.30
2019-02-21T05:49:07.945Z,33.75
2019-02-21T05:51:46.195Z,32.58
2019-02-21T05:54:29.082Z,37.25
2019-02-21T05:57:12.217Z,33.33
2019-02-21T06:00:02.591Z,34.58
2019-02-21T06:02:53.465Z,34.93
2019-02-21T06:05:24.741Z,39.60
2019-02-21T06:08:18.427Z,40.35
2019-02-21T06:11:02.182Z,30.30
2019-02-21T06:13:46.946Z,33.50
2019-02-21T06:16:34.265Z,30.15
2019-02-21T06:19:24.884Z,32.23
2019-02-21T06:22:30.472Z,30.27
2019-02-21T06:25:04.379Z,29.25
2019-02-21T06:27:40.007Z,30.88
2019-02-21T06:30:12.521Z,32.88
2019-02-21T06:32:40.971Z,32.45
2019-02-21T06:35:09.955Z,29.60
2019-02-21T06:37:38.152Z,35.65
2019-02-21T06:40:06.329Z,33.70
2019-02-21T06:42:34.495Z,35.05
2019-02-21T06:45:02.691Z,27.77
2019-02-21T06:47:30.834Z,30.82
2019-02-21T06:49:59.007Z,31.85
2019-02-21T06:52:27.601Z,39.23
2019-02-21T06:54:55.766Z,33.73
2019-02-21T06:57:43.303Z,33.23
2019-02-21T07:00:11.415Z,31.10
2019-02-21T07:02:39.688Z,37.13
2019-02-21T07:05:07.814Z,27.82
2019-02-21T07:07:36.261Z,30.55
2019-02-21T07:10:04.775Z,36.13
2019-02-21T07:12:32.959Z,32.63
2019-02-21T07:15:01.515Z,34.85
2019-02-21T07:17:30.112Z,30.02
2019-02-21T07:19:58.685Z,35.68
2019-02-21T07:22:27.185Z,33.25
2019-02-21T07:24:59.072Z,32.75
2019-02-21T07:27:27.967Z,33.33
2019-02-21T07:29:56.382Z,36.43
2019-02-21T07:32:24.578Z,29.45
2019-02-21T07:34:53.077Z,31.65
2019-02-21T07:37:21.237Z,32.90
2019-02-21T07:39:50.888Z,37.33
2019-02-21T07:42:17.606Z,31.45
2019-02-21T07:44:46.812Z,31.57
2019-02-21T07:47:14.954Z,37.08
2019-02-21T07:49:43.125Z,35.25
2019-02-21T07:52:11.285Z,35.98
2019-02-21T07:54:40.494Z,38.20
2019-02-21T07:57:09.065Z,37.63
2019-02-21T07:59:38.374Z,33.73
2019-02-21T08:02:06.717Z,33.67
2019-02-21T08:04:37.024Z,35.52
2019-02-21T08:07:04.108Z,39.25
2019-02-21T08:09:32.303Z,31.87
2019-02-21T08:12:00.805Z,37.05
2019-02-21T08:14:29.353Z,31.90
2019-02-21T08:16:57.885Z,35.00
2019-02-21T08:19:26.026Z,32.13
2019-02-21T08:21:55.216Z,31.23
2019-02-21T08:24:23.387Z,28.92
2019-02-21T08:26:51.900Z,25.50
2019-02-21T08:29:21.286Z,27.07
2019-02-21T08:31:49.472Z,26.27
2019-02-21T08:34:24.510Z,27.17
2019-02-21T08:36:52.640Z,30.77
2019-02-21T08:39:22.348Z,28.65
2019-02-21T08:41:51.480Z,29.80
2019-02-21T08:44:19.633Z,28.57
2019-02-21T08:46:48.112Z,32.83
2019-02-21T08:49:16.259Z,34.15
2019-02-21T08:51:44.456Z,33.50
2019-02-21T08:54:12.632Z,33.02
2019-02-21T08:56:41.828Z,35.57
2019-02-21T08:59:15.951Z,33.15
2019-02-21T09:01:44.611Z,31.27
2019-02-21T09:04:26.404Z,29.30
2019-02-21T09:06:41.522Z,29.45
2019-02-21T09:09:09.662Z,33.02
2019-02-21T09:11:38.376Z,28.50
2019-02-21T09:14:06.842Z,33.78
2019-02-21T09:16:35.052Z,31.35
2019-02-21T09:19:04.193Z,30.32
2019-02-21T09:21:32.369Z,29.53
2019-02-21T09:24:00.565Z,32.73
2019-02-21T09:26:29.019Z,31.20
2019-02-21T09:28:58.596Z,31.35
2019-02-21T09:31:26.415Z,34.18
2019-02-21T09:33:54.571Z,34.88
2019-02-21T09:36:22.743Z,34.50
2019-02-21T09:38:51.321Z,29.72
2019-02-21T09:41:19.526Z,34.78
2019-02-21T09:43:47.688Z,34.20
2019-02-21T09:46:16.217Z,33.63
2019-02-21T09:48:44.459Z,33.85
2019-02-21T09:51:13.920Z,33.48
2019-02-21T09:53:42.126Z,35.45
2019-02-21T09:56:10.280Z,32.28
2019-02-21T09:58:38.763Z,29.90
2019-02-21T10:01:06.974Z,35.33
2019-02-21T10:03:35.547Z,32.48
2019-02-21T10:06:03.703Z,33.70
2019-02-21T10:08:31.873Z,35.28
2019-02-21T10:11:00.818Z,33.35
2019-02-21T10:13:28.495Z,35.40
2019-02-21T10:15:56.695Z,37.45
2019-02-21T10:18:24.880Z,36.00
2019-02-21T10:20:54.035Z,37.42
2019-02-21T10:23:24.377Z,34.83
2019-02-21T10:25:51.978Z,38.10
2019-02-21T10:28:20.422Z,38.05
2019-02-21T10:30:48.977Z,37.03
2019-02-21T10:33:17.206Z,33.93
2019-02-21T10:35:46.375Z,36.85
2019-02-21T10:38:14.947Z,40.85
2019-02-21T10:40:43.437Z,34.60
2019-02-21T10:43:12.025Z,40.15
2019-02-21T10:45:47.768Z,37.63
2019-02-21T10:48:08.858Z,41.88
2019-02-21T10:50:37.442Z,42.93
2019-02-21T10:53:05.848Z,36.13
2019-02-21T10:55:34.648Z,37.17
2019-02-21T10:58:02.855Z,38.75
2019-02-21T11:00:30.993Z,33.30
2019-02-21T11:02:59.142Z,36.63
2019-02-21T11:05:27.413Z,36.45
2019-02-21T11:07:56.278Z,35.78
2019-02-21T11:10:25.810Z,34.85
2019-02-21T11:12:54.000Z,34.55
2019-02-21T11:15:23.091Z,37.78
2019-02-21T11:17:51.278Z,32.05
2019-02-21T11:20:19.480Z,32.33
2019-02-21T11:22:47.612Z,29.82
2019-02-21T11:25:15.784Z,33.75
2019-02-21T11:27:43.972Z,29.85
2019-02-21T11:30:17.022Z,27.45
2019-02-21T11:32:45.218Z,29.07
2019-02-21T11:35:13.806Z,31.10
2019-02-21T11:37:45.608Z,28.57
2019-02-21T11:40:11.252Z,31.45
2019-02-21T11:42:39.512Z,30.02
2019-02-21T11:45:09.056Z,27.82
2019-02-21T11:47:37.283Z,29.60
2019-02-21T11:50:05.695Z,31.40
2019-02-21T11:52:33.888Z,32.63
2019-02-21T11:55:02.402Z,29.67
2019-02-21T11:57:30.541Z,28.90
2019-02-21T12:00:00.973Z,31.45
2019-02-21T12:02:38.666Z,27.03
2019-02-21T12:04:57.585Z,31.37
2019-02-21T12:07:26.495Z,30.62
2019-02-21T12:09:54.955Z,29.07
2019-02-21T12:12:24.569Z,29.12
2019-02-21T12:14:52.758Z,25.27
2019-02-21T12:17:21.238Z,33.73
2019-02-21T12:19:49.695Z,26.40
2019-02-21T12:22:18.187Z,23.18
2019-02-21T12:24:46.395Z,22.67
2019-02-21T12:27:14.590Z,26.50
2019-02-21T12:29:42.730Z,19.70
2019-02-21T12:32:11.198Z,21.57
2019-02-21T12:34:40.409Z,23.30
2019-02-21T12:37:08.601Z,20.72
2019-02-21T12:39:37.049Z,21.00
2019-02-21T12:42:05.241Z,19.57
2019-02-21T12:44:34.449Z,18.83
2019-02-21T12:47:02.591Z,20.20
2019-02-21T12:49:32.671Z,20.60
2019-02-21T12:51:59.334Z,21.17
2019-02-21T12:54:27.550Z,20.68
2019-02-21T12:56:55.730Z,22.55
2019-02-21T12:59:24.281Z,23.87
2019-02-21T13:01:52.702Z,19.82
2019-02-21T13:04:20.863Z,19.42
2019-02-21T13:06:49.551Z,25.37
2019-02-21T13:09:20.779Z,22.30
2019-02-21T13:11:49.227Z,23.62
2019-02-21T13:14:17.392Z,27.17
2019-02-21T13:16:45.500Z,24.45
2019-02-21T13:19:14.462Z,24.12
2019-02-21T13:21:42.679Z,22.40
2019-02-21T13:24:10.838Z,22.52
2019-02-21T13:26:39.270Z,25.55
2019-02-21T13:29:08.246Z,26.93
2019-02-21T13:31:36.412Z,20.35
2019-02-21T13:34:04.556Z,21.27
2019-02-21T13:36:33.995Z,22.40
2019-02-21T13:39:01.444Z,21.20
2019-02-21T13:41:29.623Z,20.60
2019-02-21T13:43:57.966Z,24.37
2019-02-21T13:46:36.836Z,24.72
2019-02-21T13:48:55.337Z,24.18
2019-02-21T13:51:23.805Z,24.70
2019-02-21T13:53:52.442Z,21.20
2019-02-21T13:56:20.461Z,24.50
2019-02-21T13:58:48.568Z,23.62
2019-02-21T14:01:19.039Z,24.80
2019-02-21T14:03:47.621Z,25.00
2019-02-21T14:06:15.860Z,21.60
2019-02-21T14:08:44.019Z,22.47
2019-02-21T14:11:12.443Z,19.82
2019-02-21T14:13:40.658Z,20.48
2019-02-21T14:16:09.123Z,22.75
2019-02-21T14:18:37.311Z,23.70
2019-02-21T14:21:05.865Z,24.63
2019-02-21T14:23:34.155Z,19.40
2019-02-21T14:26:02.355Z,20.85
2019-02-21T14:28:30.502Z,23.07
2019-02-21T14:30:58.703Z,23.25
2019-02-21T14:33:26.861Z,20.62
2019-02-21T14:35:55.048Z,23.10
2019-02-21T14:38:27.859Z,24.75
2019-02-21T14:40:51.984Z,23.60
2019-02-21T14:43:22.135Z,22.98
2019-02-21T14:45:50.582Z,23.12
2019-02-21T14:48:20.724Z,25.93
2019-02-21T14:50:50.935Z,26.80
2019-02-21T14:53:20.735Z,25.40
2019-02-21T14:55:50.872Z,29.30
2019-02-21T14:58:19.355Z,20.93
2019-02-21T15:00:47.530Z,23.67
2019-02-21T15:03:21.896Z,24.75
2019-02-21T15:05:43.870Z,22.90
2019-02-21T15:08:12.041Z,24.98
2019-02-21T15:10:41.839Z,21.93
2019-02-21T15:13:10.039Z,24.77
2019-02-21T15:15:38.278Z,22.85
2019-02-21T15:18:08.278Z,22.30
2019-02-21T15:20:37.051Z,23.83
2019-02-21T15:23:02.723Z,30.32
2019-02-21T15:25:50.767Z,26.17
2019-02-21T15:28:18.965Z,24.87
2019-02-21T15:30:47.109Z,27.93
2019-02-21T15:33:34.670Z,29.00
2019-02-21T15:36:02.810Z,30.80
2019-02-21T15:38:33.038Z,28.52
2019-02-21T15:41:01.238Z,25.10
2019-02-21T15:43:29.388Z,23.60
2019-02-21T15:45:57.558Z,28.42
2019-02-21T15:48:29.940Z,24.75
2019-02-21T15:51:17.472Z,27.20
2019-02-21T15:53:46.913Z,29.67
2019-02-21T15:56:15.131Z,31.40
2019-02-21T15:58:43.591Z,27.67
2019-02-21T16:01:14.241Z,28.73
2019-02-21T16:03:42.549Z,24.92
2019-02-21T16:06:08.659Z,27.50
2019-02-21T16:08:37.742Z,25.85
2019-02-21T16:11:06.931Z,26.68
2019-02-21T16:13:35.149Z,25.57
2019-02-21T16:16:03.274Z,24.15
2019-02-21T16:18:31.461Z,26.07
2019-02-21T16:21:01.042Z,31.17
2019-02-21T16:23:29.243Z,29.12
2019-02-21T16:25:57.406Z,25.00
2019-02-21T16:28:25.858Z,29.63
2019-02-21T16:30:54.758Z,29.67
2019-02-21T16:33:22.977Z,26.50
2019-02-21T16:35:51.710Z,26.82
2019-02-21T16:38:19.931Z,28.40
2019-02-21T16:40:48.085Z,28.95
2019-02-21T16:43:17.303Z,30.17
2019-02-21T16:45:47.157Z,32.03
2019-02-21T16:48:14.421Z,26.77
2019-02-21T16:50:42.622Z,26.45
2019-02-21T16:53:15.078Z,29.23
2019-02-21T16:55:43.253Z,30.05
2019-02-21T16:58:11.425Z,27.73
2019-02-21T17:00:52.495Z,30.45
2019-02-21T17:03:07.795Z,27.87
2019-02-21T17:05:36.381Z,28.62
2019-02-21T17:08:04.543Z,28.07
2019-02-21T17:10:33.136Z,32.55
2019-02-21T17:13:01.297Z,29.32
2019-02-21T17:15:29.796Z,32.40
2019-02-21T17:17:57.950Z,30.30
2019-02-21T17:20:26.138Z,31.52
2019-02-21T17:22:54.575Z,36.53
2019-02-21T17:25:23.487Z,32.73
2019-02-21T17:27:51.966Z,33.70
2019-02-21T17:30:20.163Z,31.17
2019-02-21T17:32:48.868Z,32.60
2019-02-21T17:35:17.346Z,30.25
2019-02-21T17:37:45.501Z,29.95
2019-02-21T17:40:16.141Z,30.37
2019-02-21T17:42:44.291Z,35.00
2019-02-21T17:45:12.572Z,35.48
2019-02-21T17:47:41.764Z,30.10
2019-02-21T17:50:12.565Z,39.60
2019-02-21T17:52:41.281Z,33.13
2019-02-21T17:55:10.018Z,36.68
2019-02-21T17:57:38.888Z,35.15
2019-02-21T18:00:10.109Z,36.88
2019-02-21T18:02:38.682Z,34.33
2019-02-21T18:05:07.179Z,33.40
2019-02-21T18:07:36.624Z,31.23
2019-02-21T18:10:03.665Z,36.53
2019-02-21T18:12:32.123Z,34.58
2019-02-21T18:15:00.625Z,32.90
2019-02-21T18:17:32.516Z,33.33
2019-02-21T18:20:01.699Z,31.77
2019-02-21T18:22:29.918Z,36.83
2019-02-21T18:24:58.102Z,33.45
2019-02-21T18:27:26.317Z,36.50
2019-02-21T18:29:55.143Z,33.02
2019-02-21T18:32:23.343Z,37.08
2019-02-21T18:34:51.513Z,37.17
2019-02-21T18:37:19.677Z,34.92
2019-02-21T18:39:48.182Z,37.28
2019-02-21T18:42:17.238Z,36.83
2019-02-21T18:44:45.433Z,38.60
2019-02-21T18:47:13.999Z,37.70
2019-02-21T18:49:42.459Z,40.67
2019-02-21T18:52:11.203Z,41.65
2019-02-21T18:54:39.372Z,40.17
2019-02-21T18:57:07.537Z,39.95
2019-02-21T18:59:35.658Z,49.58
2019-02-21T19:02:03.921Z,37.25
2019-02-21T19:04:33.069Z,37.88
2019-02-21T19:07:01.259Z,42.67
2019-02-21T19:09:29.415Z,42.05
2019-02-21T19:11:57.605Z,41.93
2019-02-21T19:14:25.761Z,45.00
2019-02-21T19:16:55.013Z,43.28
2019-02-21T19:19:23.238Z,56.90
2019-02-21T19:21:51.432Z,45.98
2019-02-21T19:24:19.957Z,48.08
2019-02-21T19:26:48.534Z,43.60
2019-02-21T19:29:16.669Z,47.13
2019-02-21T19:31:44.831Z,46.23
2019-02-21T19:34:13.285Z,48.38
2019-02-21T19:36:42.265Z,42.45
2019-02-21T19:39:10.476Z,46.05
2019-02-21T19:41:38.646Z,43.92
2019-02-21T19:44:09.223Z,51.05
2019-02-21T19:46:35.981Z,45.23
2019-02-21T19:49:05.530Z,48.55
2019-02-21T19:51:33.689Z,48.45
2019-02-21T19:54:01.918Z,47.33
2019-02-21T19:56:30.623Z,53.28
2019-02-21T19:58:59.856Z,52.45
2019-02-21T20:01:28.393Z,55.90
2019-02-21T20:03:56.622Z,58.85
2019-02-21T20:06:24.778Z,59.60
2019-02-21T20:08:53.241Z,52.15
2019-02-21T20:11:21.434Z,65.62
2019-02-21T20:13:49.618Z,54.30
2019-02-21T20:16:18.870Z,51.60
2019-02-21T20:18:47.483Z,54.90
2019-02-21T20:21:15.722Z,51.08
2019-02-21T20:23:43.842Z,57.67
2019-02-21T20:26:18.311Z,53.17
2019-02-21T20:28:41.116Z,56.28
2019-02-21T20:31:09.652Z,51.65
2019-02-21T20:33:37.924Z,51.28
2019-02-21T20:36:06.143Z,53.58
2019-02-21T20:38:34.292Z,53.73
2019-02-21T20:41:02.504Z,54.70
2019-02-21T20:43:30.666Z,51.28
2019-02-21T20:45:58.828Z,52.83
2019-02-21T20:48:27.690Z,54.63
2019-02-21T20:50:57.338Z,49.95
2019-02-21T20:53:24.483Z,52.40
2019-02-21T20:55:53.734Z,49.42
2019-02-21T20:58:21.952Z,54.55
2019-02-21T21:00:50.166Z,51.25
2019-02-21T21:03:18.584Z,53.55
2019-02-21T21:05:46.786Z,49.90
2019-02-21T21:08:14.955Z,48.15
2019-02-21T21:10:44.572Z,54.80
2019-02-21T21:13:12.739Z,48.50
2019-02-21T21:15:40.919Z,49.63
2019-02-21T21:18:09.141Z,50.28
2019-02-21T21:20:37.744Z,52.83
2019-02-21T21:23:05.984Z,55.38
2019-02-21T21:25:34.272Z,53.28
2019-02-21T21:28:02.499Z,48.68
2019-02-21T21:30:35.188Z,45.75
2019-02-21T21:33:03.353Z,51.02
2019-02-21T21:35:31.536Z,43.95
2019-02-21T21:37:59.693Z,47.85
2019-02-21T21:40:28.000Z,55.58
2019-02-21T21:42:56.141Z,48.15
2019-02-21T21:45:24.325Z,53.63
2019-02-21T21:47:52.483Z,47.27
2019-02-21T21:50:20.681Z,50.40
2019-02-21T21:52:49.121Z,51.13
2019-02-21T21:55:17.714Z,49.63
2019-02-21T21:57:46.197Z,49.65
2019-02-21T22:00:18.099Z,45.43
2019-02-21T22:02:46.049Z,48.95
2019-02-21T22:05:14.757Z,49.08
2019-02-21T22:07:43.170Z,43.63
2019-02-21T22:10:11.661Z,47.87
2019-02-21T22:12:40.873Z,50.52
2019-02-21T22:15:10.773Z,44.03
2019-02-21T22:17:42.086Z,47.30
2019-02-21T22:20:08.553Z,46.07
2019-02-21T22:22:36.746Z,44.65
2019-02-21T22:25:05.717Z,46.63
2019-02-21T22:27:34.034Z,44.50
2019-02-21T22:30:02.070Z,48.75
2019-02-21T22:32:30.273Z,46.30
2019-02-21T22:34:58.426Z,40.33
2019-02-21T22:37:26.607Z,54.00
2019-02-21T22:39:54.813Z,48.98
2019-02-21T22:42:22.962Z,48.45
2019-02-21T22:44:51.134Z,44.25
2019-02-21T22:47:20.329Z,49.05
2019-02-21T22:49:49.513Z,44.50
2019-02-21T22:52:18.734Z,46.15
2019-02-21T22:54:47.886Z,49.25
2019-02-21T22:57:40.061Z,45.60
2019-02-21T23:01:08.763Z,41.10
2019-02-21T23:03:43.817Z,48.07
2019-02-21T23:06:34.258Z,38.95
2019-02-21T23:09:14.026Z,50.27
2019-02-21T23:11:52.012Z,49.80
2019-02-21T23:14:35.578Z,49.08
2019-02-21T23:17:03.687Z,49.40
2019-02-21T23:19:31.896Z,43.92
2019-02-21T23:22:21.239Z,50.50
2019-02-21T23:24:45.274Z,45.38
2019-02-21T23:27:19.972Z,50.60
2019-02-21T23:29:49.061Z,45.35
2019-02-21T23:32:23.779Z,46.15
2019-02-21T23:34:52.921Z,49.90
2019-02-21T23:37:21.067Z,43.33
2019-02-21T23:39:50.272Z,53.13
2019-02-21T23:42:19.072Z,46.08
2019-02-21T23:44:47.230Z,48.85
2019-02-21T23:47:15.394Z,48.87
2019-02-21T23:49:43.562Z,43.80
2019-02-21T23:52:12.021Z,49.40
2019-02-21T23:54:40.234Z,46.85
2019-02-21T23:57:08.403Z,45.50
2019-02-21T23:59:36.567Z,47.05
